Time;durP1;ratioP1;P1;durP2;ratioP2;P2;SDS_P1;SDS_P2;PMS_P1;PMS_P2;Temp;Humidity;BMP_temperature;BMP_pressure;BME280_temperature;BME280_humidity;BME280_pressure;Samples;Min_cycle;Max_cycle;Signal;HPM_P1;HPM_P2
2022/01/19 00:00:01;;;;;;;215.30;44.90;;;;;;;6.88;68.64;103349.97;5245239;28;20470;-49
2022/01/19 00:02:33;;;;;;;250.95;45.47;;;;;;;6.84;68.68;103348.34;5238313;28;20766;-46
2022/01/19 00:05:09;;;;;;;238.45;49.70;;;;;;;6.84;68.69;103347.50;5242499;28;20405;-44
2022/01/19 00:07:41;;;;;;;228.30;48.42;;;;;;;6.77;68.72;103333.78;5243928;28;20524;-45
2022/01/19 00:10:18;;;;;;;264.75;47.67;;;;;;;6.79;68.75;103334.59;5242318;28;20932;-44
2022/01/19 00:12:51;;;;;;;242.95;50.47;;;;;;;6.75;68.90;103337.38;5246415;28;21021;-47
2022/01/19 00:15:24;;;;;;;240.90;49.70;;;;;;;6.75;68.70;103337.38;5242880;28;20867;-44
2022/01/19 00:17:58;;;;;;;373.33;55.22;;;;;;;6.67;68.65;103324.59;5246400;28;20412;-43
2022/01/19 00:20:34;;;;;;;270.27;54.85;;;;;;;6.76;68.73;103321.56;5244418;28;20485;-44
2022/01/19 00:23:07;;;;;;;229.60;52.08;;;;;;;6.75;68.80;103325.13;5238720;28;20466;-44
2022/01/19 00:25:40;;;;;;;251.63;54.22;;;;;;;6.72;68.92;103316.50;5245959;28;20444;-45
2022/01/19 00:28:13;;;;;;;232.13;53.67;;;;;;;6.70;68.77;103316.56;5245434;28;20401;-43
2022/01/19 00:30:45;;;;;;;213.68;53.17;;;;;;;6.70;68.73;103303.44;5248696;28;20394;-45
2022/01/19 00:33:19;;;;;;;243.63;48.78;;;;;;;6.69;68.70;103294.72;5247286;28;20424;-43
2022/01/19 00:35:53;;;;;;;264.65;46.40;;;;;;;6.58;68.98;103268.03;5247074;28;20913;-43
2022/01/19 00:38:26;;;;;;;216.07;45.60;;;;;;;6.55;68.87;103246.31;5244878;28;20404;-45
2022/01/19 00:40:58;;;;;;;208.65;41.17;;;;;;;6.47;68.92;103229.13;5246963;28;20491;-45
2022/01/19 00:43:31;;;;;;;214.18;42.58;;;;;;;6.37;69.06;103212.03;5236644;28;20413;-47
2022/01/19 00:46:03;;;;;;;249.37;47.83;;;;;;;6.33;69.13;103197.34;5243513;28;20420;-46
2022/01/19 00:48:36;;;;;;;161.70;41.95;;;;;;;6.27;69.16;103189.72;5250944;28;20513;-44
2022/01/19 00:51:10;;;;;;;192.75;44.85;;;;;;;6.22;69.24;103191.69;5250433;28;20473;-44
2022/01/19 00:53:42;;;;;;;196.93;45.38;;;;;;;6.20;69.11;103198.78;5247075;28;20434;-44
2022/01/19 00:56:15;;;;;;;185.75;44.53;;;;;;;6.18;69.03;103211.09;5242692;28;20418;-46
2022/01/19 00:58:47;;;;;;;274.02;48.72;;;;;;;6.17;68.84;103217.28;5248122;28;20414;-47
2022/01/19 01:01:19;;;;;;;232.07;48.92;;;;;;;6.17;68.78;103219.91;5251291;28;20437;-46
2022/01/19 01:03:52;;;;;;;272.70;51.90;;;;;;;6.21;68.93;103216.22;5246062;28;20421;-44
2022/01/19 01:06:25;;;;;;;215.32;49.58;;;;;;;6.22;68.87;103210.03;5251584;28;20406;-44
2022/01/19 01:08:58;;;;;;;216.13;49.10;;;;;;;6.17;68.85;103204.16;5242007;28;20407;-47
2022/01/19 01:11:35;;;;;;;199.98;48.03;;;;;;;6.23;68.87;103202.13;5247480;28;20413;-44
2022/01/19 01:17:12;;;;;;;282.02;49.97;;;;;;;6.24;68.64;103189.84;5250518;28;20410;-45
2022/01/19 01:19:45;;;;;;;177.93;47.13;;;;;;;6.24;68.69;103190.69;5247737;28;20408;-44
2022/01/19 01:22:18;;;;;;;203.20;47.92;;;;;;;6.22;68.72;103191.69;5240639;28;20438;-44
2022/01/19 01:24:51;;;;;;;207.02;49.97;;;;;;;6.19;68.85;103191.81;5246283;28;20414;-44
2022/01/19 01:27:23;;;;;;;228.48;49.25;;;;;;;6.14;68.68;103178.03;5240827;28;20822;-46
2022/01/19 01:29:55;;;;;;;206.77;51.90;;;;;;;6.17;68.56;103172.66;5241805;28;20869;-50
2022/01/19 01:32:28;;;;;;;255.48;53.03;;;;;;;6.19;68.51;103168.19;5247528;28;20411;-47
2022/01/19 01:35:00;;;;;;;230.25;52.35;;;;;;;6.19;68.57;103161.19;5250180;28;20393;-44
2022/01/19 01:37:34;;;;;;;258.75;53.88;;;;;;;6.18;68.56;103148.13;5250973;28;20864;-47
2022/01/19 01:40:09;;;;;;;240.17;53.70;;;;;;;6.12;68.57;103135.25;5242277;28;20510;-54
2022/01/19 01:42:42;;;;;;;220.80;51.20;;;;;;;5.93;68.35;103107.19;5248256;28;20450;-45
2022/01/19 01:45:17;;;;;;;257.92;53.30;;;;;;;5.94;68.64;103103.63;5249157;28;20410;-45
2022/01/19 01:47:55;;;;;;;248.75;54.83;;;;;;;6.00;68.55;103124.34;5247005;28;20445;-47
2022/01/19 01:53:27;;;;;;;166.18;50.92;;;;;;;5.95;68.60;103115.00;5244919;28;20759;-43
2022/01/19 01:56:09;;;;;;;173.75;48.50;;;;;;;5.89;68.63;103115.22;5253151;28;20755;-45
2022/01/19 01:58:43;;;;;;;180.50;47.17;;;;;;;5.84;68.61;103115.41;5240178;28;20418;-44
2022/01/19 02:01:17;;;;;;;168.48;48.50;;;;;;;5.78;68.81;103115.66;5244925;28;20429;-44
2022/01/19 02:03:49;;;;;;;203.70;51.67;;;;;;;5.75;68.61;103113.16;5247390;28;20425;-44
2022/01/19 02:06:31;;;;;;;180.30;48.88;;;;;;;5.75;68.76;103119.25;5244347;28;20422;-44
2022/01/19 02:09:09;;;;;;;181.80;52.50;;;;;;;5.70;68.74;103109.88;5241752;28;20410;-46
2022/01/19 02:23:24;;;;;;;181.75;54.83;;;;;;;5.60;68.45;103079.69;5246854;28;20410;-47
2022/01/19 02:26:00;;;;;;;191.77;56.95;;;;;;;5.57;68.42;103074.56;5249411;28;20875;-44
2022/01/19 02:40:13;;;;;;;186.60;57.70;;;;;;;5.27;68.99;102996.31;5240655;28;20424;-44
2022/01/19 02:42:56;;;;;;;162.48;53.22;;;;;;;5.26;68.92;102984.09;5244321;28;20429;-45
2022/01/19 02:51:09;;;;;;;172.65;56.95;;;;;;;5.26;68.89;102957.91;5245349;28;20402;-44
2022/01/19 02:53:43;;;;;;;170.23;53.05;;;;;;;5.27;68.80;102949.16;5243958;28;20464;-44
2022/01/19 02:56:21;;;;;;;180.10;57.80;;;;;;;5.28;69.00;102948.22;5243700;28;20446;-43
2022/01/19 02:59:00;;;;;;;152.30;52.85;;;;;;;5.31;68.83;102946.31;5239853;28;20490;-44
2022/01/19 03:10:04;;;;;;;144.10;53.97;;;;;;;5.36;68.88;102948.75;5246188;28;20399;-44
2022/01/19 03:12:36;;;;;;;136.73;53.30;;;;;;;5.21;68.85;102928.44;5242399;28;20481;-43
2022/01/19 03:15:10;;;;;;;137.77;49.60;;;;;;;5.30;69.02;102938.53;5241303;28;20425;-44
2022/01/19 03:17:43;;;;;;;129.30;48.95;;;;;;;5.31;68.77;102940.22;5247313;28;20800;-44
2022/01/19 03:20:15;;;;;;;121.37;46.37;;;;;;;5.35;68.83;102941.78;5245904;28;20928;-45
2022/01/19 03:22:56;;;;;;;108.95;47.13;;;;;;;5.39;68.63;102948.63;5245366;28;20402;-45
2022/01/19 03:25:30;;;;;;;119.63;47.20;;;;;;;5.40;69.02;102960.81;5247856;28;20459;-46
2022/01/19 03:28:02;;;;;;;118.25;46.83;;;;;;;5.43;68.46;102971.16;5239475;28;20902;-48
2022/01/19 03:30:35;;;;;;;123.30;48.17;;;;;;;5.41;68.51;102973.00;5243630;28;20748;-47
2022/01/19 03:33:07;;;;;;;133.27;48.75;;;;;;;5.50;68.51;102980.47;5242779;28;20410;-44
2022/01/19 03:35:40;;;;;;;131.53;48.47;;;;;;;5.48;68.50;102966.59;5246098;28;20425;-45
2022/01/19 03:38:13;;;;;;;116.82;46.35;;;;;;;5.57;68.41;102969.72;5243222;28;20409;-46
2022/01/19 03:40:47;;;;;;;119.35;45.72;;;;;;;5.50;68.26;102962.13;5245461;28;20757;-44
2022/01/19 03:43:19;;;;;;;118.80;45.33;;;;;;;5.59;68.60;102960.03;5244785;28;20894;-48
2022/01/19 03:45:53;;;;;;;107.00;43.40;;;;;;;5.62;68.61;102954.66;5249959;28;20903;-44
2022/01/19 03:48:37;;;;;;;101.53;42.60;;;;;;;5.64;68.49;102960.72;5246310;28;20405;-45
2022/01/19 03:51:10;;;;;;;110.78;46.35;;;;;;;5.65;68.64;102959.78;5243293;28;20887;-46
2022/01/19 03:53:43;;;;;;;88.60;42.13;;;;;;;5.66;68.48;102956.22;5245832;28;20416;-44
2022/01/19 03:56:17;;;;;;;107.10;42.05;;;;;;;5.67;68.50;102948.31;5247567;28;20868;-43
2022/01/19 03:58:49;;;;;;;108.10;44.77;;;;;;;5.72;68.38;102935.00;5242947;28;20859;-44
2022/01/19 04:01:21;;;;;;;100.57;43.83;;;;;;;5.70;68.20;102921.97;5247462;28;20418;-44
2022/01/19 04:04:15;;;;;;;100.35;41.92;;;;;;;5.72;68.48;102919.25;5242440;28;20742;-44
2022/01/19 04:07:00;;;;;;;96.20;40.63;;;;;;;5.71;68.49;102917.56;5240789;28;20429;-44
2022/01/19 04:09:33;;;;;;;98.95;40.55;;;;;;;5.72;68.39;102916.63;5237294;28;20398;-44
2022/01/19 04:12:10;;;;;;;115.53;42.93;;;;;;;5.75;68.34;102919.13;5242325;28;20447;-44
2022/01/19 04:14:43;;;;;;;97.47;41.03;;;;;;;5.76;68.28;102915.56;5243868;28;20429;-43
2022/01/19 04:17:17;;;;;;;91.03;40.33;;;;;;;5.78;68.24;102913.75;5238607;28;20430;-44
2022/01/19 04:19:49;;;;;;;95.60;42.72;;;;;;;5.77;68.56;102912.06;5241219;28;20459;-44
2022/01/19 04:22:22;;;;;;;96.90;43.63;;;;;;;5.77;68.43;102906.81;5244355;28;20428;-49
2022/01/19 04:24:54;;;;;;;101.47;43.15;;;;;;;5.79;68.44;102899.72;5248464;28;20412;-44
2022/01/19 04:27:34;;;;;;;102.75;44.17;;;;;;;5.80;68.47;102895.34;5252181;28;20414;-44
2022/01/19 04:30:11;;;;;;;100.88;44.88;;;;;;;5.78;68.49;102890.16;5246740;28;20410;-45
2022/01/19 04:32:50;;;;;;;102.38;46.10;;;;;;;5.78;68.58;102887.53;5249831;28;20766;-45
2022/01/19 04:35:26;;;;;;;99.70;44.97;;;;;;;5.79;68.71;102881.34;5249075;28;20795;-44
2022/01/19 04:38:28;;;;;;;103.40;47.63;;;;;;;5.84;68.52;102882.00;5253966;28;20425;-45
2022/01/19 05:04:00;;;;;;;94.22;46.75;;;;;;;6.07;68.62;102846.03;5242652;28;20425;-47
2022/01/19 05:06:39;;;;;;;96.40;47.42;;;;;;;6.10;68.59;102845.91;5250062;28;20427;-44
2022/01/19 05:09:29;;;;;;;99.30;47.47;;;;;;;6.15;68.59;102838.66;5239470;28;20428;-47
2022/01/19 05:14:51;;;;;;;97.82;49.33;;;;;;;6.17;68.59;102821.09;5247269;28;20417;-45
2022/01/19 05:17:26;;;;;;;90.32;48.70;;;;;;;6.20;68.59;102813.09;5241942;28;20542;-48
2022/01/19 05:19:59;;;;;;;82.97;46.63;;;;;;;6.23;68.64;102820.81;5248972;28;20506;-43
2022/01/19 05:22:45;;;;;;;92.85;47.83;;;;;;;6.25;68.72;102816.31;5250016;28;20489;-48
2022/01/19 05:25:17;;;;;;;91.10;45.10;;;;;;;6.29;68.47;102810.03;5249928;28;20402;-44
2022/01/19 05:27:52;;;;;;;96.20;47.40;;;;;;;6.32;68.52;102809.88;5250364;28;20454;-42
2022/01/19 05:30:26;;;;;;;90.93;46.83;;;;;;;6.34;68.55;102807.16;5250101;28;20487;-45
2022/01/19 05:33:08;;;;;;;92.70;46.10;;;;;;;6.36;68.60;102797.44;5241080;28;20411;-44
2022/01/19 05:35:40;;;;;;;98.72;47.45;;;;;;;6.40;68.63;102789.34;5247006;28;20947;-45
2022/01/19 05:38:13;;;;;;;91.28;46.45;;;;;;;6.43;68.43;102781.31;5253827;28;20414;-45
2022/01/19 05:40:45;;;;;;;94.10;45.55;;;;;;;6.43;68.43;102786.56;5253050;28;20417;-46
2022/01/19 05:43:18;;;;;;;89.97;45.85;;;;;;;6.43;68.54;102770.81;5254891;28;20525;-44
2022/01/19 05:45:50;;;;;;;95.15;46.00;;;;;;;6.45;68.44;102773.38;5254377;28;20915;-44
2022/01/19 05:48:24;;;;;;;80.40;43.17;;;;;;;6.41;68.53;102756.94;5246601;28;20407;-45
2022/01/19 05:50:56;;;;;;;82.80;42.90;;;;;;;6.43;68.54;102752.44;5247462;28;20395;-45
2022/01/19 05:53:31;;;;;;;71.63;42.25;;;;;;;6.44;68.57;102738.41;5240699;28;20952;-44
2022/01/19 05:56:07;;;;;;;80.25;41.92;;;;;;;6.47;68.58;102735.63;5233536;28;20414;-47
2022/01/19 05:58:39;;;;;;;80.35;41.17;;;;;;;6.51;68.52;102735.47;5234767;28;20508;-44
2022/01/19 06:01:12;;;;;;;80.07;40.90;;;;;;;6.55;68.51;102722.09;5237593;28;20490;-44
2022/01/19 06:03:45;;;;;;;73.65;39.42;;;;;;;6.59;68.48;102707.06;5241923;28;20492;-44
2022/01/19 06:06:20;;;;;;;69.65;36.58;;;;;;;6.57;68.46;102707.16;5232869;28;20415;-44
2022/01/19 06:09:00;;;;;;;74.23;40.37;;;;;;;6.58;68.64;102694.88;5236858;28;20742;-44
2022/01/19 06:11:38;;;;;;;74.05;39.70;;;;;;;6.64;68.52;102700.66;5235358;28;20851;-46
2022/01/19 06:14:10;;;;;;;76.27;40.37;;;;;;;6.68;68.38;102696.06;5234096;28;20404;-43
2022/01/19 06:16:45;;;;;;;76.88;38.65;;;;;;;6.72;68.32;102691.50;5232879;28;20499;-44
2022/01/19 06:19:20;;;;;;;74.95;40.17;;;;;;;6.73;68.43;102688.81;5233949;28;20877;-47
2022/01/19 06:21:55;;;;;;;71.28;40.50;;;;;;;6.72;68.28;102681.88;5248433;28;20406;-46
2022/01/19 06:24:35;;;;;;;72.18;40.33;;;;;;;6.73;68.58;102678.31;5248969;28;20407;-44
2022/01/19 06:27:10;;;;;;;78.82;41.63;;;;;;;6.76;68.55;102672.06;5250953;28;20463;-44
2022/01/19 06:29:42;;;;;;;84.40;41.75;;;;;;;6.75;68.39;102665.97;5243403;28;20413;-43
2022/01/19 06:32:17;;;;;;;78.85;40.33;;;;;;;6.74;68.49;102663.41;5248772;28;20422;-45
2022/01/19 06:34:54;;;;;;;70.80;38.45;;;;;;;6.75;68.42;102660.72;5249349;28;20844;-44
2022/01/19 06:37:32;;;;;;;73.95;38.63;;;;;;;6.77;68.45;102653.59;5246747;28;20600;-44
2022/01/19 06:40:13;;;;;;;73.55;41.17;;;;;;;6.75;68.46;102655.47;5242531;28;20797;-43
2022/01/19 06:42:46;;;;;;;77.03;37.92;;;;;;;6.70;68.42;102634.69;5248027;28;20806;-43
2022/01/19 06:45:27;;;;;;;74.43;39.35;;;;;;;6.79;68.39;102646.50;5243098;28;20438;-44
2022/01/19 06:47:59;;;;;;;81.05;41.78;;;;;;;6.80;68.40;102642.94;5235607;28;20938;-48
2022/01/19 06:50:41;;;;;;;71.05;40.00;;;;;;;6.76;68.38;102623.03;5245102;28;20423;-45
2022/01/19 06:53:14;;;;;;;74.07;39.57;;;;;;;6.87;68.28;102644.28;5230424;28;20416;-44
2022/01/19 06:55:46;;;;;;;76.20;42.07;;;;;;;6.90;68.23;102638.88;5245738;28;20432;-47
2022/01/19 06:58:19;;;;;;;74.70;41.22;;;;;;;6.92;68.07;102641.44;5248105;28;20417;-44
2022/01/19 07:00:51;;;;;;;78.18;39.50;;;;;;;6.93;68.09;102638.72;5250473;28;20410;-43
2022/01/19 07:03:24;;;;;;;68.82;39.63;;;;;;;6.93;68.38;102625.56;5250139;28;20489;-43
2022/01/19 07:06:07;;;;;;;74.60;39.92;;;;;;;6.92;68.18;102616.00;5248671;28;20421;-46
2022/01/19 07:08:40;;;;;;;68.65;38.50;;;;;;;6.90;68.17;102615.22;5247073;28;20467;-43
2022/01/19 07:11:12;;;;;;;70.38;40.80;;;;;;;6.86;68.28;102621.59;5248234;28;20400;-47
2022/01/19 07:13:44;;;;;;;70.22;39.95;;;;;;;6.85;68.25;102609.41;5249815;28;20441;-43
2022/01/19 07:16:17;;;;;;;88.18;44.05;;;;;;;6.85;68.23;102614.66;5232525;28;20561;-43
2022/01/19 07:18:49;;;;;;;83.90;42.17;;;;;;;6.87;68.24;102614.56;5239257;28;20844;-43
2022/01/19 07:21:23;;;;;;;73.28;43.35;;;;;;;6.89;68.17;102616.16;5231637;28;20408;-44
2022/01/19 07:23:55;;;;;;;82.00;42.90;;;;;;;6.93;68.01;102612.44;5233525;28;20408;-44
2022/01/19 07:26:28;;;;;;;79.90;43.20;;;;;;;6.95;68.04;102609.75;5250633;28;20802;-44
2022/01/19 07:29:08;;;;;;;83.22;44.63;;;;;;;6.99;67.77;102613.06;5250935;28;20473;-45
2022/01/19 07:31:40;;;;;;;73.13;43.40;;;;;;;6.98;67.93;102608.75;5242608;28;20488;-44
2022/01/19 07:34:13;;;;;;;79.65;43.13;;;;;;;6.88;67.87;102580.34;5233593;28;20419;-44
2022/01/19 07:36:51;;;;;;;77.45;43.70;;;;;;;7.01;67.83;102593.66;5247398;28;20504;-43
2022/01/19 07:39:26;;;;;;;81.65;46.13;;;;;;;7.02;67.79;102586.63;5251295;28;20434;-43
2022/01/19 07:41:59;;;;;;;86.88;45.45;;;;;;;7.00;67.77;102586.72;5251553;28;20481;-43
2022/01/19 07:44:32;;;;;;;81.85;45.25;;;;;;;6.99;67.81;102581.53;5245875;28;20406;-44
2022/01/19 07:47:05;;;;;;;75.82;41.72;;;;;;;6.99;67.68;102589.41;5248824;28;20390;-46
2022/01/19 07:49:38;;;;;;;74.07;43.10;;;;;;;7.03;67.90;102583.03;5246234;28;20424;-44
2022/01/19 07:52:15;;;;;;;73.75;45.33;;;;;;;7.04;67.63;102577.72;5245460;28;20874;-44
2022/01/19 07:54:50;;;;;;;81.80;48.30;;;;;;;7.06;67.56;102572.38;5237367;28;20431;-43
2022/01/19 07:57:22;;;;;;;76.72;43.17;;;;;;;7.09;67.65;102566.94;5240366;28;20445;-43
2022/01/19 07:59:55;;;;;;;75.30;45.73;;;;;;;7.13;67.48;102563.25;5252002;28;20404;-44
2022/01/19 08:02:32;;;;;;;72.85;45.80;;;;;;;7.14;67.49;102551.78;5243795;28;20408;-43
2022/01/19 08:05:06;;;;;;;79.15;46.00;;;;;;;7.15;67.34;102548.22;5232056;28;20500;-45
2022/01/19 08:07:39;;;;;;;67.25;39.47;;;;;;;7.14;67.47;102544.75;5245524;28;20418;-43
2022/01/19 08:10:13;;;;;;;76.68;44.47;;;;;;;7.05;67.51;102526.03;5245970;28;20783;-44
2022/01/19 08:12:49;;;;;;;71.05;43.72;;;;;;;7.16;67.36;102536.78;5246197;28;20414;-44
2022/01/19 08:15:28;;;;;;;63.95;41.80;;;;;;;7.19;67.41;102527.91;5244886;28;20491;-44
2022/01/19 08:18:05;;;;;;;71.15;42.88;;;;;;;7.11;67.49;102526.53;5239587;28;21180;-44
2022/01/19 08:20:40;;;;;;;76.17;43.87;;;;;;;7.20;67.27;102529.59;5243589;28;20507;-44
2022/01/19 08:23:21;;;;;;;80.82;46.63;;;;;;;7.18;67.35;102527.03;5245405;28;20956;-44
2022/01/19 08:25:53;;;;;;;80.75;46.47;;;;;;;7.19;67.38;102534.00;5242966;28;20500;-46
2022/01/19 08:28:26;;;;;;;86.63;49.05;;;;;;;7.21;67.21;102531.25;5245726;28;21029;-42
2022/01/19 08:31:09;;;;;;;79.03;45.78;;;;;;;7.21;67.23;102524.22;5246963;28;20481;-42
2022/01/19 08:33:41;;;;;;;80.85;46.53;;;;;;;7.19;67.37;102518.22;5243783;28;20414;-50
2022/01/19 08:36:26;;;;;;;75.75;44.17;;;;;;;7.21;67.13;102520.75;5245742;28;20762;-43
2022/01/19 08:39:01;;;;;;;84.60;45.75;;;;;;;7.21;67.22;102518.97;5237460;28;20409;-43
2022/01/19 08:41:42;;;;;;;74.95;45.70;;;;;;;7.23;67.19;102503.97;5247877;28;20914;-43
2022/01/19 08:44:36;;;;;;;76.93;44.70;;;;;;;7.25;67.11;102494.22;5244761;28;20398;-43
2022/01/19 08:47:23;;;;;;;76.40;43.90;;;;;;;7.27;67.00;102484.47;5235758;28;20541;-46
2022/01/19 08:50:03;;;;;;;72.72;43.35;;;;;;;7.26;67.07;102482.78;5244117;28;20406;-44
2022/01/19 08:52:36;;;;;;;74.65;45.58;;;;;;;7.31;67.00;102486.00;5242551;28;20509;-44
2022/01/19 08:55:20;;;;;;;76.00;44.10;;;;;;;7.32;67.00;102481.59;5246275;28;20438;-44
2022/01/19 08:57:55;;;;;;;73.45;43.83;;;;;;;7.32;67.02;102482.44;5239656;28;20444;-43
2022/01/19 09:00:28;;;;;;;70.30;42.30;;;;;;;7.38;66.83;102484.69;5241667;28;20790;-47
2022/01/19 09:03:00;;;;;;;76.43;45.75;;;;;;;7.39;66.63;102478.50;5245327;28;20410;-43
2022/01/19 09:05:33;;;;;;;78.90;45.25;;;;;;;7.41;66.83;102475.78;5248240;28;20770;-44
2022/01/19 09:08:06;;;;;;;81.35;48.60;;;;;;;7.40;66.81;102463.56;5232859;28;20525;-43
2022/01/19 09:10:41;;;;;;;71.82;45.08;;;;;;;7.37;66.86;102459.34;5247367;28;20445;-43
2022/01/19 09:13:13;;;;;;;80.72;47.13;;;;;;;7.33;66.93;102455.19;5250353;28;20425;-44
2022/01/19 09:15:46;;;;;;;83.30;45.75;;;;;;;7.28;67.00;102443.28;5251939;28;20390;-44
2022/01/19 09:18:18;;;;;;;78.15;47.05;;;;;;;7.12;67.07;102417.88;5247803;28;20413;-43
2022/01/19 09:20:51;;;;;;;72.95;45.38;;;;;;;7.25;66.86;102428.53;5236954;28;20859;-43
2022/01/19 09:23:23;;;;;;;79.60;47.83;;;;;;;7.27;66.88;102431.91;5251746;28;20429;-43
2022/01/19 09:26:00;;;;;;;88.45;50.72;;;;;;;7.29;66.95;102440.56;5252543;28;20429;-50
2022/01/19 09:28:32;;;;;;;77.35;48.55;;;;;;;7.33;66.90;102426.28;5246804;28;20452;-48
2022/01/19 09:31:11;;;;;;;86.55;49.83;;;;;;;7.35;66.82;102429.69;5248130;28;20399;-45
2022/01/19 09:33:44;;;;;;;77.93;48.55;;;;;;;7.34;66.82;102430.63;5250067;28;20425;-44
2022/01/19 09:36:30;;;;;;;87.60;50.40;;;;;;;7.36;66.71;102433.16;5247837;28;20425;-43
2022/01/19 09:39:08;;;;;;;86.60;50.38;;;;;;;7.38;66.76;102426.88;5251478;28;20894;-43
2022/01/19 09:41:43;;;;;;;92.28;49.47;;;;;;;7.43;66.61;102429.22;5246504;28;20402;-44
2022/01/19 09:44:17;;;;;;;93.68;52.75;;;;;;;7.36;66.56;102426.09;5247765;28;20478;-44
2022/01/19 09:46:53;;;;;;;92.68;50.53;;;;;;;7.44;66.61;102448.50;5250953;28;20418;-43
2022/01/19 09:49:26;;;;;;;92.03;51.53;;;;;;;7.46;66.55;102438.72;5248690;28;20402;-46
2022/01/19 09:51:58;;;;;;;84.80;50.08;;;;;;;7.47;66.56;102435.16;5246534;28;20398;-43
2022/01/19 09:54:31;;;;;;;93.68;49.10;;;;;;;7.42;66.53;102421.44;5249494;28;20488;-43
2022/01/19 09:57:06;;;;;;;84.70;49.22;;;;;;;7.46;66.58;102430.81;5250740;28;20405;-43
2022/01/19 09:59:38;;;;;;;88.95;49.47;;;;;;;7.52;66.52;102440.97;5245385;28;20409;-45
2022/01/19 10:02:12;;;;;;;90.75;50.65;;;;;;;7.50;66.68;102442.88;5247304;28;20425;-43
2022/01/19 10:04:47;;;;;;;87.38;49.50;;;;;;;7.54;66.45;102441.75;5239774;28;21130;-43
2022/01/19 10:07:22;;;;;;;89.07;49.97;;;;;;;7.54;66.52;102449.63;5241420;28;20426;-58
2022/01/19 10:10:03;;;;;;;88.40;50.03;;;;;;;7.55;66.62;102440.78;5248660;28;20601;-44
2022/01/19 10:18:35;;;;;;;86.20;49.58;;;;;;;7.56;66.50;102422.31;5250107;28;20402;-43
2022/01/19 10:21:12;;;;;;;83.13;45.78;;;;;;;7.60;66.45;102415.94;5248925;28;20826;-44
2022/01/19 10:23:48;;;;;;;88.45;46.83;;;;;;;7.63;66.35;102417.53;5246343;28;20501;-44
2022/01/19 10:26:27;;;;;;;76.90;45.70;;;;;;;7.66;66.41;102412.09;5248866;28;20418;-45
2022/01/19 10:29:13;;;;;;;66.65;38.42;;;;;;;7.72;66.29;102421.41;5222231;28;21396;-45
2022/01/19 10:31:46;;;;;;;43.92;22.77;;;;;;;7.77;66.28;102414.06;5228294;28;20407;-44
2022/01/19 10:34:21;;;;;;;35.88;17.00;;;;;;;7.78;66.24;102406.09;5226695;28;20522;-44
2022/01/19 10:37:00;;;;;;;30.05;11.80;;;;;;;7.81;66.29;102394.53;5224613;28;20442;-43
2022/01/19 10:39:41;;;;;;;25.00;9.73;;;;;;;7.84;66.32;102387.31;5222851;28;20404;-46
2022/01/19 10:42:16;;;;;;;28.87;9.77;;;;;;;7.90;66.25;102377.31;5223896;28;20419;-44
2022/01/19 10:44:53;;;;;;;27.00;8.68;;;;;;;7.92;66.18;102355.25;5229427;28;20418;-44
2022/01/19 10:47:42;;;;;;;24.80;9.63;;;;;;;7.96;66.23;102351.50;5228456;28;20469;-44
2022/01/19 10:50:19;;;;;;;27.83;7.78;;;;;;;8.00;66.20;102347.75;5226336;28;20415;-45
2022/01/19 10:52:53;;;;;;;21.30;7.63;;;;;;;8.04;66.20;102351.03;5225542;28;20425;-44
2022/01/19 10:55:29;;;;;;;19.88;6.80;;;;;;;8.11;66.08;102339.16;5227735;28;20493;-45
2022/01/19 10:58:02;;;;;;;27.05;7.15;;;;;;;8.20;66.09;102321.94;5221757;28;20408;-43
2022/01/19 11:00:37;;;;;;;17.20;6.90;;;;;;;8.32;65.95;102324.63;5222467;28;20436;-45
2022/01/19 11:03:21;;;;;;;20.35;7.00;;;;;;;8.40;65.90;102323.34;5223266;28;20411;-44
2022/01/19 11:05:56;;;;;;;24.17;6.90;;;;;;;8.52;66.04;102317.28;5223934;28;20416;-44
2022/01/19 11:08:30;;;;;;;17.08;5.68;;;;;;;8.58;65.88;102301.09;5218291;28;20413;-42
2022/01/19 11:11:03;;;;;;;21.00;7.68;;;;;;;8.60;66.00;102325.50;5225574;28;20404;-46
2022/01/19 11:13:53;;;;;;;16.13;6.10;;;;;;;8.67;65.87;102300.47;5227528;28;20400;-47
2022/01/19 11:16:31;;;;;;;18.10;6.25;;;;;;;8.74;65.73;102295.66;5224625;28;20880;-44
2022/01/19 11:19:03;;;;;;;21.90;6.00;;;;;;;8.78;65.58;102300.59;5223815;28;20412;-44
2022/01/19 11:21:45;;;;;;;16.30;5.95;;;;;;;8.83;65.71;102288.94;5222057;28;20398;-50
2022/01/19 11:24:39;;;;;;;19.00;5.30;;;;;;;8.88;65.58;102278.91;5226011;28;20431;-46
2022/01/19 11:27:12;;;;;;;17.15;5.25;;;;;;;8.94;65.37;102291.66;5231367;28;20502;-45
2022/01/19 11:29:45;;;;;;;15.95;5.97;;;;;;;8.94;65.34;102287.22;5246545;28;20756;-43
2022/01/19 11:32:21;;;;;;;20.38;6.45;;;;;;;8.95;65.24;102282.78;5248717;28;20421;-44
2022/01/19 11:34:54;;;;;;;15.45;5.45;;;;;;;8.97;65.11;102276.47;5249308;28;20861;-43
2022/01/19 11:37:37;;;;;;;16.88;5.45;;;;;;;9.01;64.77;102277.13;5244946;28;20397;-44
2022/01/19 11:40:14;;;;;;;17.10;5.57;;;;;;;9.00;64.77;102264.91;5244120;28;20477;-43
2022/01/19 11:42:47;;;;;;;17.65;4.82;;;;;;;8.99;64.59;102260.59;5247471;28;20413;-44
2022/01/19 11:45:39;;;;;;;18.80;5.55;;;;;;;8.96;64.50;102231.81;5249036;28;20510;-44
2022/01/19 11:48:16;;;;;;;21.92;5.78;;;;;;;8.87;64.39;102221.91;5245016;28;20425;-42
2022/01/19 11:50:51;;;;;;;15.02;5.70;;;;;;;8.97;64.31;102225.56;5242405;28;20404;-42
2022/01/19 11:53:23;;;;;;;16.35;6.88;;;;;;;8.98;64.12;102230.75;5242965;28;20429;-46
2022/01/19 11:56:08;;;;;;;17.70;6.05;;;;;;;8.98;64.03;102233.41;5248822;28;20437;-44
2022/01/19 11:59:08;;;;;;;18.35;5.35;;;;;;;8.95;63.97;102220.44;5242972;28;20784;-44
2022/01/19 12:01:41;;;;;;;17.10;6.07;;;;;;;8.90;63.90;102216.41;5238424;28;20513;-44
2022/01/19 12:04:17;;;;;;;16.90;5.78;;;;;;;8.91;63.67;102218.09;5244299;28;20428;-43
2022/01/19 12:06:50;;;;;;;17.42;5.43;;;;;;;8.87;63.65;102203.44;5245550;28;20423;-43
2022/01/19 12:09:22;;;;;;;19.13;6.20;;;;;;;8.86;63.56;102199.16;5249715;28;20789;-46
2022/01/19 12:12:15;;;;;;;28.83;5.93;;;;;;;8.83;63.62;102188.81;5248937;28;20481;-43
2022/01/19 12:14:51;;;;;;;16.02;5.63;;;;;;;8.81;63.48;102186.28;5244792;28;20767;-42
2022/01/19 12:17:27;;;;;;;17.90;5.38;;;;;;;8.79;63.43;102188.16;5247406;28;20434;-44
2022/01/19 12:20:01;;;;;;;24.45;6.85;;;;;;;8.78;63.39;102171.50;5243914;28;20401;-43
2022/01/19 12:22:35;;;;;;;19.02;5.03;;;;;;;8.80;63.33;102167.94;5246536;28;20451;-45
2022/01/19 12:25:11;;;;;;;16.02;5.78;;;;;;;8.78;63.11;102160.97;5240414;28;20415;-43
2022/01/19 12:27:52;;;;;;;21.25;6.45;;;;;;;8.79;63.29;102164.44;5245575;28;20488;-44
2022/01/19 12:30:31;;;;;;;19.37;6.03;;;;;;;8.76;63.42;102151.50;5243064;28;20409;-45
2022/01/19 12:33:07;;;;;;;22.77;6.72;;;;;;;8.83;63.21;102149.31;5249065;28;20412;-44
2022/01/19 12:36:43;;;;;;;24.70;7.18;;;;;;;8.84;63.15;102143.06;5243110;28;20867;-44
2022/01/19 12:39:44;;;;;;;24.02;7.43;;;;;;;8.81;63.18;102144.13;5238817;28;20390;-44
2022/01/19 12:42:22;;;;;;;15.35;5.45;;;;;;;8.86;63.16;102136.75;5227678;28;20402;-44
2022/01/19 12:44:57;;;;;;;24.67;7.32;;;;;;;8.85;63.19;102139.47;5250642;28;20748;-44
2022/01/19 12:47:50;;;;;;;31.00;8.57;;;;;;;8.89;63.03;102130.44;5247595;28;20784;-44
2022/01/19 12:50:48;;;;;;;28.27;7.88;;;;;;;8.88;63.02;102118.19;5252809;28;20489;-44
2022/01/19 12:53:25;;;;;;;25.85;8.27;;;;;;;8.88;63.01;102121.66;5249393;28;20421;-45
2022/01/19 12:56:02;;;;;;;23.20;6.70;;;;;;;8.95;62.73;102119.44;5248892;28;20749;-46
2022/01/19 12:58:36;;;;;;;28.23;7.00;;;;;;;8.98;62.83;102121.84;5249162;28;20406;-59
2022/01/19 13:01:11;;;;;;;26.63;8.23;;;;;;;8.98;62.78;102130.63;5243004;28;20412;-44
2022/01/19 13:03:45;;;;;;;24.50;7.23;;;;;;;8.96;62.79;102105.34;5239935;28;20506;-44
2022/01/19 13:06:18;;;;;;;27.45;7.57;;;;;;;8.99;62.91;102105.94;5250069;28;20782;-44
2022/01/19 13:08:59;;;;;;;28.00;7.10;;;;;;;9.00;62.93;102088.34;5247886;28;20493;-45
2022/01/19 13:11:38;;;;;;;24.07;7.93;;;;;;;9.01;62.83;102090.03;5245960;28;20423;-53